Time;durP1;ratioP1;P1;durP2;ratioP2;P2;SDS_P1;SDS_P2;PMS_P1;PMS_P2;Temp;Humidity;BMP_temperature;BMP_pressure;BME280_temperature;BME280_humidity;BME280_pressure;Samples;Min_cycle;Max_cycle;Signal;HPM_P1;HPM_P2
2021/07/08 00:01:20;;;;;;;1.70;1.60;;;17.10;99.90;;;;;;4955520;28;20186;-73
2021/07/08 00:03:46;;;;;;;2.17;1.05;;;17.10;99.90;;;;;;4957748;28;20406;-74
2021/07/08 00:06:12;;;;;;;1.50;1.17;;;17.10;99.90;;;;;;4957499;28;20195;-74
2021/07/08 00:08:38;;;;;;;1.30;1.08;;;17.10;99.90;;;;;;4959807;28;20212;-74
2021/07/08 00:11:03;;;;;;;1.20;1.10;;;17.00;99.90;;;;;;4957113;28;20232;-73
2021/07/08 00:13:30;;;;;;;1.20;1.10;;;17.00;99.90;;;;;;4961433;28;20208;-74
2021/07/08 00:15:56;;;;;;;2.13;1.30;;;16.90;99.90;;;;;;4954444;28;20181;-74
2021/07/08 00:18:25;;;;;;;1.17;1.08;;;16.90;99.90;;;;;;4960618;28;20243;-75
2021/07/08 00:20:51;;;;;;;2.10;1.30;;;16.90;99.90;;;;;;4960219;28;20204;-74
2021/07/08 00:23:19;;;;;;;1.75;1.00;;;16.80;99.90;;;;;;4954374;28;20552;-76
2021/07/08 00:25:47;;;;;;;2.25;1.20;;;16.70;99.90;;;;;;4954105;28;20236;-75
2021/07/08 00:28:15;;;;;;;2.10;1.15;;;16.60;99.90;;;;;;4958598;28;20212;-74
2021/07/08 00:30:46;;;;;;;1.50;1.40;;;16.60;99.90;;;;;;4955822;28;20568;-74
2021/07/08 00:33:12;;;;;;;2.00;1.52;;;16.60;99.90;;;;;;4959763;28;20209;-74
2021/07/08 00:35:39;;;;;;;1.30;1.20;;;16.60;99.90;;;;;;4960560;28;20177;-74
2021/07/08 00:38:05;;;;;;;3.25;1.77;;;16.60;99.90;;;;;;4956961;28;20197;-73
2021/07/08 00:40:31;;;;;;;1.20;1.10;;;16.50;99.90;;;;;;4956343;28;20288;-74
2021/07/08 00:42:57;;;;;;;1.67;1.38;;;16.50;99.90;;;;;;4957537;28;20588;-74
2021/07/08 00:45:24;;;;;;;1.45;1.35;;;16.50;99.90;;;;;;4956395;28;20181;-74
2021/07/08 00:47:50;;;;;;;1.30;1.20;;;16.50;99.90;;;;;;4955667;28;20301;-75
2021/07/08 00:50:19;;;;;;;3.22;1.40;;;16.40;99.90;;;;;;4956732;28;20689;-74
2021/07/08 00:52:45;;;;;;;1.50;1.40;;;16.50;99.90;;;;;;4956575;28;20723;-74
2021/07/08 00:55:11;;;;;;;3.17;1.58;;;16.50;99.90;;;;;;4955059;28;20185;-76
2021/07/08 00:57:53;;;;;;;1.52;1.38;;;16.40;99.90;;;;;;4959002;28;20191;-75
2021/07/08 01:00:21;;;;;;;1.42;1.33;;;16.40;99.90;;;;;;4960812;28;20240;-71
2021/07/08 01:02:49;;;;;;;1.95;1.50;;;16.30;99.90;;;;;;4958360;28;20267;-74
2021/07/08 01:05:17;;;;;;;1.77;1.30;;;16.20;99.90;;;;;;4954000;28;20196;-72
2021/07/08 01:07:46;;;;;;;1.70;1.50;;;16.20;99.90;;;;;;4952061;28;20211;-73
2021/07/08 01:10:14;;;;;;;1.58;1.35;;;16.20;99.90;;;;;;4957367;28;20273;-73
2021/07/08 01:12:40;;;;;;;2.20;1.60;;;16.20;99.90;;;;;;4956398;28;20339;-73
2021/07/08 01:15:07;;;;;;;1.50;1.40;;;16.20;99.90;;;;;;4957994;28;20267;-73
2021/07/08 01:17:33;;;;;;;2.00;1.60;;;16.20;99.90;;;;;;4956517;28;20214;-74
2021/07/08 01:19:59;;;;;;;2.28;1.58;;;16.20;99.90;;;;;;4954464;28;20299;-73
2021/07/08 01:22:24;;;;;;;2.28;1.50;;;16.20;99.90;;;;;;4956108;28;20784;-74
2021/07/08 01:24:50;;;;;;;1.27;1.10;;;16.10;99.90;;;;;;4958012;28;20184;-73
2021/07/08 01:27:16;;;;;;;1.92;1.75;;;16.10;99.90;;;;;;4958264;28;20192;-73
2021/07/08 01:29:41;;;;;;;2.15;1.45;;;16.10;99.90;;;;;;4956683;28;20213;-74
2021/07/08 01:32:07;;;;;;;2.33;1.60;;;16.10;99.90;;;;;;4953464;28;20186;-74
2021/07/08 01:34:33;;;;;;;1.80;1.63;;;16.00;99.90;;;;;;4954374;28;20299;-76
2021/07/08 01:36:59;;;;;;;2.85;1.70;;;16.00;99.90;;;;;;4955170;28;20272;-74
2021/07/08 01:39:25;;;;;;;1.70;1.50;;;15.90;99.90;;;;;;4953990;28;20220;-74
2021/07/08 01:41:50;;;;;;;1.52;1.42;;;15.90;99.90;;;;;;4957174;28;20653;-73
2021/07/08 01:44:17;;;;;;;2.45;1.55;;;16.00;99.90;;;;;;4954079;28;20200;-74
2021/07/08 01:46:43;;;;;;;2.25;2.05;;;16.00;99.90;;;;;;4954577;28;20244;-73
2021/07/08 01:49:09;;;;;;;2.10;1.85;;;15.90;99.90;;;;;;4957511;28;20303;-73
2021/07/08 01:51:35;;;;;;;3.55;1.50;;;16.00;99.90;;;;;;4957673;28;20181;-73
2021/07/08 01:54:03;;;;;;;2.90;1.75;;;16.00;99.90;;;;;;4955535;28;20244;-74
2021/07/08 01:56:29;;;;;;;3.10;1.52;;;16.00;99.90;;;;;;4955642;28;20239;-74
2021/07/08 01:58:56;;;;;;;1.45;1.35;;;15.90;99.90;;;;;;4952266;28;20185;-74
2021/07/08 02:01:22;;;;;;;1.50;1.40;;;15.90;99.90;;;;;;4956046;28;20224;-74
2021/07/08 02:03:48;;;;;;;2.13;1.95;;;15.90;99.90;;;;;;4958060;28;20598;-74
2021/07/08 02:06:14;;;;;;;1.55;1.45;;;15.80;99.90;;;;;;4956563;28;20665;-74
2021/07/08 02:08:40;;;;;;;1.90;1.77;;;15.70;99.90;;;;;;4954784;28;20298;-75
2021/07/08 02:11:07;;;;;;;2.10;1.90;;;15.80;99.90;;;;;;4953633;28;20668;-74
2021/07/08 02:13:34;;;;;;;2.33;1.65;;;15.80;99.90;;;;;;4952444;28;20676;-73
2021/07/08 02:16:02;;;;;;;1.50;1.40;;;15.70;99.90;;;;;;4958065;28;20185;-73
2021/07/08 02:18:28;;;;;;;2.85;1.75;;;15.60;99.90;;;;;;4961865;28;20216;-75
2021/07/08 02:20:54;;;;;;;2.65;1.50;;;15.50;99.90;;;;;;4961889;28;20676;-75
2021/07/08 02:23:20;;;;;;;2.08;1.70;;;15.50;99.90;;;;;;4961198;28;20193;-75
2021/07/08 02:25:46;;;;;;;1.85;1.55;;;15.50;99.90;;;;;;4958565;28;20570;-74
2021/07/08 02:28:11;;;;;;;1.88;1.75;;;15.60;99.90;;;;;;4961303;28;20271;-75
2021/07/08 02:30:37;;;;;;;4.40;1.80;;;15.50;99.90;;;;;;4961036;28;20682;-74
2021/07/08 02:33:03;;;;;;;3.22;1.75;;;15.70;99.90;;;;;;4959204;28;20283;-74
2021/07/08 02:35:30;;;;;;;2.15;1.90;;;15.50;99.90;;;;;;4963469;28;20187;-73
2021/07/08 02:37:56;;;;;;;3.30;2.40;;;15.50;99.90;;;;;;4958446;28;20193;-73
2021/07/08 02:40:34;;;;;;;2.00;1.90;;;15.50;99.90;;;;;;4959210;28;20201;-74
2021/07/08 02:43:01;;;;;;;7.25;2.05;;;15.50;99.90;;;;;;4960917;28;20189;-74
2021/07/08 02:45:29;;;;;;;1.70;1.60;;;15.50;99.90;;;;;;4962205;28;20695;-75
2021/07/08 02:47:55;;;;;;;2.25;2.05;;;15.40;99.90;;;;;;4960344;28;20181;-73
2021/07/08 02:50:23;;;;;;;2.22;2.03;;;15.40;99.90;;;;;;4963620;28;20209;-74
2021/07/08 02:52:49;;;;;;;2.20;2.00;;;15.40;99.90;;;;;;4958792;28;20209;-74
2021/07/08 02:55:15;;;;;;;2.08;1.90;;;15.40;99.90;;;;;;4960064;28;20251;-74
2021/07/08 02:57:41;;;;;;;1.88;1.77;;;15.40;99.90;;;;;;4957475;28;20618;-74
2021/07/08 03:00:10;;;;;;;3.95;2.53;;;15.40;99.90;;;;;;4959169;28;20205;-75
2021/07/08 03:02:36;;;;;;;4.63;2.22;;;15.40;99.90;;;;;;4959223;28;20586;-74
2021/07/08 03:05:03;;;;;;;2.45;2.25;;;15.40;99.90;;;;;;4959710;28;20187;-75
2021/07/08 03:07:29;;;;;;;2.25;1.92;;;15.50;99.90;;;;;;4959915;28;20260;-75
2021/07/08 03:09:55;;;;;;;2.22;1.98;;;15.50;99.90;;;;;;4958771;28;20204;-73
2021/07/08 03:12:20;;;;;;;2.67;1.95;;;15.50;99.90;;;;;;4958852;28;20194;-75
2021/07/08 03:14:46;;;;;;;3.10;1.83;;;15.40;99.90;;;;;;4961430;28;20205;-75
2021/07/08 03:17:12;;;;;;;2.30;1.95;;;15.50;99.90;;;;;;4958444;28;20285;-74
2021/07/08 03:19:37;;;;;;;2.08;1.77;;;15.50;99.90;;;;;;4959388;28;20205;-74
2021/07/08 03:22:03;;;;;;;2.53;1.75;;;15.50;99.90;;;;;;4959207;28;20189;-75
2021/07/08 03:24:29;;;;;;;2.67;2.42;;;15.60;99.90;;;;;;4958237;28;20193;-75
2021/07/08 03:26:55;;;;;;;2.08;1.98;;;15.50;99.90;;;;;;4952647;28;20213;-74
2021/07/08 03:29:20;;;;;;;2.20;2.00;;;15.60;99.90;;;;;;4958742;28;20214;-75
2021/07/08 03:31:46;;;;;;;2.33;1.80;;;15.70;99.90;;;;;;4960410;28;20277;-74
2021/07/08 03:34:12;;;;;;;2.58;2.17;;;15.70;99.90;;;;;;4961826;28;20629;-74
2021/07/08 03:36:38;;;;;;;4.43;1.80;;;15.70;99.90;;;;;;4959731;28;20221;-74
2021/07/08 03:39:05;;;;;;;2.17;1.98;;;15.80;99.90;;;;;;4960887;28;20209;-74
2021/07/08 03:41:31;;;;;;;1.60;1.48;;;15.80;99.90;;;;;;4960106;28;20189;-74
2021/07/08 03:43:58;;;;;;;2.83;2.53;;;15.80;99.90;;;;;;4955798;28;20232;-75
2021/07/08 03:46:23;;;;;;;3.10;2.42;;;15.80;99.90;;;;;;4960950;28;20660;-74
2021/07/08 03:48:49;;;;;;;3.47;2.20;;;15.80;99.90;;;;;;4974835;28;20188;-76
2021/07/08 03:51:14;;;;;;;3.53;2.30;;;15.80;99.90;;;;;;4959551;28;20219;-75
2021/07/08 03:53:40;;;;;;;2.30;2.10;;;15.80;99.90;;;;;;4954886;28;20684;-75
2021/07/08 03:56:06;;;;;;;6.10;2.35;;;15.70;99.90;;;;;;4956967;28;20596;-75
2021/07/08 03:58:31;;;;;;;2.80;1.73;;;15.90;99.90;;;;;;4961420;28;20579;-74
2021/07/08 04:00:57;;;;;;;3.10;2.13;;;16.00;99.90;;;;;;4959821;28;20556;-74
2021/07/08 04:03:23;;;;;;;2.28;1.90;;;16.10;99.90;;;;;;4956565;28;20192;-73
2021/07/08 04:05:48;;;;;;;2.75;2.25;;;16.10;99.90;;;;;;4955801;28;20253;-74
2021/07/08 04:08:15;;;;;;;2.72;2.00;;;16.20;99.90;;;;;;4960397;28;20224;-74
2021/07/08 04:10:42;;;;;;;2.60;2.35;;;16.40;99.90;;;;;;4956915;28;20243;-74
2021/07/08 04:13:34;;;;;;;4.88;3.15;;;16.60;99.90;;;;;;4958358;28;20205;-75
2021/07/08 04:16:00;;;;;;;2.13;1.95;;;16.70;99.90;;;;;;4957932;28;20193;-74
2021/07/08 04:18:26;;;;;;;3.15;2.30;;;16.70;99.90;;;;;;4957039;28;20495;-74
2021/07/08 04:20:52;;;;;;;3.13;2.83;;;16.60;99.90;;;;;;4959424;28;20211;-74
2021/07/08 04:23:18;;;;;;;4.90;2.90;;;16.50;99.90;;;;;;4957960;28;20227;-75
2021/07/08 04:25:44;;;;;;;3.03;2.72;;;16.50;99.90;;;;;;4956871;28;20190;-73
2021/07/08 04:28:11;;;;;;;3.80;3.03;;;16.50;99.90;;;;;;4958136;28;20188;-73
2021/07/08 04:30:37;;;;;;;2.72;2.53;;;16.50;99.90;;;;;;4956592;28;20205;-73
2021/07/08 04:33:03;;;;;;;5.57;3.42;;;16.50;99.90;;;;;;4957596;28;20216;-73
2021/07/08 04:35:36;;;;;;;4.80;2.85;;;16.60;99.90;;;;;;4952422;28;20189;-74
2021/07/08 04:38:02;;;;;;;5.63;3.22;;;16.60;99.90;;;;;;4957681;28;20241;-73
2021/07/08 04:40:28;;;;;;;6.53;3.90;;;16.60;99.90;;;;;;4954535;28;20228;-73
2021/07/08 04:42:54;;;;;;;5.15;3.28;;;16.80;99.90;;;;;;4959060;28;20637;-74
2021/07/08 04:45:20;;;;;;;3.83;3.17;;;16.80;99.90;;;;;;4958221;28;20648;-74
2021/07/08 04:47:46;;;;;;;4.18;3.78;;;17.00;99.90;;;;;;4958288;28;20186;-73
2021/07/08 04:50:17;;;;;;;4.57;3.10;;;17.20;99.90;;;;;;4959420;28;20200;-74
2021/07/08 04:52:44;;;;;;;3.45;3.15;;;17.20;99.90;;;;;;4957749;28;20192;-74
2021/07/08 04:55:11;;;;;;;3.78;3.42;;;17.20;99.90;;;;;;4955773;28;20177;-74
2021/07/08 04:57:37;;;;;;;4.28;3.58;;;17.20;99.90;;;;;;4958558;28;20192;-74
2021/07/08 05:00:11;;;;;;;9.32;4.13;;;17.20;99.90;;;;;;4955976;28;20236;-74
2021/07/08 05:02:41;;;;;;;4.88;3.92;;;17.20;99.90;;;;;;4956490;28;20683;-74
2021/07/08 05:05:09;;;;;;;4.43;3.55;;;17.30;99.90;;;;;;4957119;28;20185;-73
2021/07/08 05:07:35;;;;;;;6.53;3.88;;;17.60;99.90;;;;;;4957453;28;20200;-73
2021/07/08 05:10:06;;;;;;;3.85;3.45;;;18.10;99.90;;;;;;4958147;28;20205;-73
2021/07/08 05:12:31;;;;;;;5.03;4.13;;;18.10;99.90;;;;;;4958888;28;20227;-73
2021/07/08 05:14:57;;;;;;;5.72;3.97;;;17.90;99.90;;;;;;4955999;28;20663;-74
2021/07/08 05:17:23;;;;;;;5.13;4.00;;;17.90;99.90;;;;;;4954139;28;20177;-74
2021/07/08 05:19:49;;;;;;;3.83;3.53;;;17.80;99.90;;;;;;4957612;28;20209;-74
2021/07/08 05:22:18;;;;;;;4.18;3.78;;;17.90;99.90;;;;;;4958317;28;20182;-74
2021/07/08 05:24:44;;;;;;;4.40;4.00;;;18.00;99.90;;;;;;4951911;28;20189;-75
2021/07/08 05:27:15;;;;;;;4.88;4.13;;;18.00;99.90;;;;;;4958027;28;20641;-74
2021/07/08 05:29:41;;;;;;;5.10;4.20;;;18.00;99.90;;;;;;4954258;28;20196;-74
2021/07/08 05:32:07;;;;;;;5.70;4.10;;;18.10;99.90;;;;;;4959272;28;20189;-73
2021/07/08 05:34:33;;;;;;;4.57;4.18;;;18.10;99.90;;;;;;4955933;28;20243;-73
2021/07/08 05:36:58;;;;;;;4.20;3.80;;;18.10;99.90;;;;;;4956138;28;20282;-73
2021/07/08 05:39:24;;;;;;;5.30;4.68;;;18.20;99.90;;;;;;4955983;28;20213;-74
2021/07/08 05:41:49;;;;;;;3.97;3.63;;;18.30;99.90;;;;;;4958265;28;20185;-74
2021/07/08 05:44:15;;;;;;;4.70;4.13;;;18.50;99.90;;;;;;4954277;28;20185;-74
2021/07/08 05:46:41;;;;;;;4.05;3.55;;;18.70;99.90;;;;;;4955396;28;20189;-74
2021/07/08 05:49:06;;;;;;;4.47;4.07;;;18.80;99.90;;;;;;4955218;28;20205;-73
2021/07/08 05:51:32;;;;;;;4.05;3.65;;;18.80;99.90;;;;;;4953018;28;20272;-74
2021/07/08 05:53:59;;;;;;;4.53;4.00;;;18.90;99.90;;;;;;4955756;28;20219;-74
2021/07/08 05:56:26;;;;;;;4.95;3.88;;;18.90;99.90;;;;;;4954762;28;20203;-74
2021/07/08 05:58:51;;;;;;;4.78;4.15;;;18.90;99.90;;;;;;4957636;28;20264;-74
2021/07/08 06:01:18;;;;;;;4.15;3.78;;;18.70;99.90;;;;;;4957867;28;20264;-75
2021/07/08 06:03:44;;;;;;;4.15;3.75;;;18.60;99.90;;;;;;4957184;28;20216;-75
2021/07/08 06:06:10;;;;;;;6.03;3.88;;;18.50;99.90;;;;;;4955725;28;20270;-73
2021/07/08 06:08:35;;;;;;;5.82;4.22;;;18.60;99.90;;;;;;4954242;28;20580;-74
2021/07/08 06:11:01;;;;;;;4.88;4.03;;;18.60;99.90;;;;;;4955435;28;20562;-73
2021/07/08 06:13:26;;;;;;;7.25;4.35;;;18.60;99.90;;;;;;4954634;28;20245;-74
2021/07/08 06:15:52;;;;;;;4.38;3.97;;;18.70;99.90;;;;;;4953613;28;20182;-74
2021/07/08 06:18:18;;;;;;;4.75;3.83;;;18.80;99.90;;;;;;4957670;28;20181;-74
2021/07/08 06:20:43;;;;;;;5.13;3.58;;;19.00;99.90;;;;;;4957155;28;20201;-74
2021/07/08 06:23:09;;;;;;;4.80;4.28;;;19.30;99.90;;;;;;4955982;28;20235;-73
2021/07/08 06:25:35;;;;;;;6.13;4.40;;;19.40;99.90;;;;;;4956986;28;20189;-74
2021/07/08 06:28:00;;;;;;;5.18;4.70;;;19.50;99.90;;;;;;4954836;28;20244;-74
2021/07/08 06:30:26;;;;;;;5.40;4.90;;;19.70;99.90;;;;;;4956436;28;20216;-74
2021/07/08 06:32:52;;;;;;;4.85;4.43;;;19.80;99.90;;;;;;4958831;28;20227;-73
2021/07/08 06:35:18;;;;;;;4.65;4.25;;;19.90;99.90;;;;;;4954241;28;20186;-74
2021/07/08 06:37:46;;;;;;;4.45;4.03;;;20.10;99.90;;;;;;4953958;28;20177;-73
2021/07/08 06:40:13;;;;;;;4.25;3.90;;;20.20;99.90;;;;;;4955121;28;20287;-75
2021/07/08 06:42:38;;;;;;;4.10;3.70;;;20.30;99.90;;;;;;4955688;28;20208;-74
2021/07/08 06:45:06;;;;;;;4.72;4.00;;;20.50;99.90;;;;;;4953933;28;20529;-73
2021/07/08 06:47:38;;;;;;;4.13;3.72;;;20.80;99.90;;;;;;4956902;28;20178;-73
2021/07/08 06:50:06;;;;;;;4.90;4.50;;;21.00;99.90;;;;;;4959666;28;20197;-74
2021/07/08 06:52:32;;;;;;;5.68;5.13;;;21.00;99.90;;;;;;4953887;28;20220;-74
2021/07/08 06:54:58;;;;;;;6.15;5.55;;;20.90;99.90;;;;;;4949556;28;20363;-75
2021/07/08 06:57:23;;;;;;;7.70;5.75;;;21.00;99.90;;;;;;4954317;28;20228;-73
2021/07/08 06:59:49;;;;;;;6.32;5.32;;;21.00;99.90;;;;;;4958324;28;20205;-73
2021/07/08 07:02:15;;;;;;;5.20;4.80;;;21.40;99.90;;;;;;4956516;28;20185;-73
2021/07/08 07:04:40;;;;;;;5.70;5.20;;;21.90;99.90;;;;;;4956430;28;20192;-74
2021/07/08 07:07:06;;;;;;;6.07;5.47;;;22.50;99.90;;;;;;4957933;28;20205;-75
2021/07/08 07:09:32;;;;;;;5.82;5.32;;;23.10;99.90;;;;;;4955973;28;20220;-73
2021/07/08 07:11:57;;;;;;;5.80;5.30;;;23.20;99.90;;;;;;4958549;28;20193;-72
2021/07/08 07:14:23;;;;;;;5.85;5.35;;;23.50;99.90;;;;;;4958312;28;20222;-72
2021/07/08 07:16:49;;;;;;;5.18;4.68;;;23.70;99.90;;;;;;4956500;28;20673;-72
2021/07/08 07:19:14;;;;;;;5.22;4.82;;;23.50;99.90;;;;;;4950829;28;20201;-73
2021/07/08 07:21:40;;;;;;;8.20;5.18;;;23.30;99.90;;;;;;4955594;28;20188;-73
2021/07/08 07:24:06;;;;;;;6.13;5.50;;;23.20;99.90;;;;;;4953873;28;20185;-73
2021/07/08 07:26:31;;;;;;;5.93;5.40;;;23.20;99.90;;;;;;4955465;28;20189;-72
2021/07/08 07:28:57;;;;;;;6.53;6.03;;;23.30;99.90;;;;;;4957559;28;21338;-72
2021/07/08 07:31:23;;;;;;;6.57;5.97;;;23.60;99.90;;;;;;4958258;28;21279;-72
2021/07/08 07:33:48;;;;;;;6.85;6.25;;;23.50;99.90;;;;;;4954292;28;20220;-72
2021/07/08 07:36:14;;;;;;;6.78;6.18;;;23.60;99.90;;;;;;4960973;28;20240;-72
2021/07/08 07:38:40;;;;;;;6.03;5.53;;;23.60;99.90;;;;;;4954608;28;20266;-73
2021/07/08 07:41:07;;;;;;;5.15;4.68;;;23.70;99.90;;;;;;4965235;28;20660;-73
2021/07/08 07:43:34;;;;;;;5.38;4.88;;;23.80;99.90;;;;;;4961369;28;20173;-72
2021/07/08 07:46:00;;;;;;;5.28;4.22;;;23.70;99.90;;;;;;4955624;28;20239;-72
2021/07/08 07:48:26;;;;;;;4.38;3.97;;;24.00;99.90;;;;;;4959926;28;20692;-73
2021/07/08 07:50:51;;;;;;;4.47;4.18;;;23.90;99.90;;;;;;4960127;28;20204;-73
2021/07/08 07:53:17;;;;;;;4.78;4.38;;;23.60;99.90;;;;;;4958212;28;20213;-73
2021/07/08 07:55:43;;;;;;;5.95;4.43;;;23.60;99.90;;;;;;4957311;28;20524;-73
2021/07/08 07:58:09;;;;;;;3.72;3.42;;;23.40;99.90;;;;;;4959550;28;20193;-73
2021/07/08 08:00:34;;;;;;;4.57;3.50;;;23.40;99.90;;;;;;4957862;28;20829;-73
2021/07/08 08:03:00;;;;;;;4.65;3.70;;;23.70;99.90;;;;;;4958036;28;20186;-73
2021/07/08 08:05:37;;;;;;;5.22;4.82;;;23.70;99.90;;;;;;4957825;28;20665;-73
2021/07/08 08:10:49;;;;;;;5.85;4.57;;;23.80;99.90;;;;;;4954040;28;20211;-72
2021/07/08 08:13:15;;;;;;;3.97;3.67;;;23.70;99.90;;;;;;4962688;28;20695;-73
2021/07/08 08:15:41;;;;;;;4.22;3.92;;;23.80;99.90;;;;;;4960297;28;20224;-73
2021/07/08 08:18:07;;;;;;;3.67;3.10;;;23.70;99.90;;;;;;4951969;28;20193;-73
2021/07/08 08:20:33;;;;;;;3.50;3.08;;;23.80;99.90;;;;;;4957521;28;20201;-73
2021/07/08 08:22:59;;;;;;;5.13;3.58;;;23.70;99.90;;;;;;4958892;28;20719;-73
2021/07/08 08:25:25;;;;;;;3.50;3.20;;;23.60;99.90;;;;;;4955197;28;20186;-73
2021/07/08 08:27:51;;;;;;;4.03;2.67;;;23.60;99.90;;;;;;4957947;28;20181;-74
2021/07/08 08:30:17;;;;;;;3.30;3.00;;;23.40;99.90;;;;;;4953570;28;20549;-72
2021/07/08 08:32:43;;;;;;;3.00;2.80;;;23.30;99.90;;;;;;4956994;28;20237;-73
2021/07/08 08:35:11;;;;;;;3.50;3.10;;;23.20;99.90;;;;;;4954396;28;20189;-73
2021/07/08 08:37:37;;;;;;;3.17;2.88;;;23.10;99.90;;;;;;4958155;28;20181;-74
2021/07/08 08:40:04;;;;;;;2.80;2.60;;;22.80;99.90;;;;;;4958159;28;20314;-73
2021/07/08 08:42:31;;;;;;;2.85;2.60;;;22.90;99.90;;;;;;4951447;28;20324;-72
2021/07/08 08:44:57;;;;;;;2.70;2.50;;;22.90;99.90;;;;;;4956732;28;20256;-73
2021/07/08 08:47:24;;;;;;;3.60;3.30;;;23.20;99.90;;;;;;4952364;28;20672;-72
2021/07/08 08:49:53;;;;;;;4.05;3.75;;;23.30;99.90;;;;;;4957611;28;20672;-72
2021/07/08 08:52:19;;;;;;;3.50;3.22;;;23.60;99.90;;;;;;4958667;28;20258;-73
2021/07/08 08:54:47;;;;;;;3.85;3.50;;;23.70;99.90;;;;;;4954760;28;20662;-73
2021/07/08 08:57:12;;;;;;;3.72;3.42;;;23.90;99.90;;;;;;4955148;28;20649;-72
2021/07/08 08:59:38;;;;;;;2.92;2.72;;;24.10;99.90;;;;;;4957160;28;20212;-73
2021/07/08 09:02:11;;;;;;;3.55;3.25;;;24.20;99.90;;;;;;4955718;28;20327;-73
2021/07/08 09:04:37;;;;;;;3.70;3.28;;;24.20;99.90;;;;;;4961828;28;20249;-73
2021/07/08 09:07:30;;;;;;;3.80;3.50;;;24.20;99.90;;;;;;4952965;28;20570;-73
2021/07/08 09:09:59;;;;;;;2.80;2.60;;;24.20;99.90;;;;;;4960207;28;20206;-73
2021/07/08 09:12:25;;;;;;;3.00;2.80;;;23.90;99.90;;;;;;4957906;28;20575;-73
2021/07/08 09:14:53;;;;;;;2.63;2.28;;;23.80;99.90;;;;;;4953679;28;20272;-73
2021/07/08 09:17:23;;;;;;;2.50;2.00;;;23.90;99.90;;;;;;4952715;28;20181;-73
2021/07/08 09:20:06;;;;;;;2.90;2.58;;;23.80;99.90;;;;;;4955430;28;20193;-73
2021/07/08 09:22:32;;;;;;;2.40;2.20;;;23.90;99.90;;;;;;4957398;28;20181;-73
2021/07/08 09:24:58;;;;;;;1.88;1.77;;;23.60;99.90;;;;;;4952849;28;20197;-72
2021/07/08 09:27:26;;;;;;;2.22;2.00;;;23.80;99.90;;;;;;4957086;28;20600;-72
2021/07/08 09:29:53;;;;;;;2.30;1.98;;;23.80;99.90;;;;;;4957200;28;20292;-73
2021/07/08 09:32:22;;;;;;;1.90;1.80;;;23.90;99.90;;;;;;4956157;28;20589;-75
2021/07/08 09:34:50;;;;;;;3.75;2.17;;;23.60;99.90;;;;;;4956680;28;21162;-73
2021/07/08 09:37:22;;;;;;;1.85;1.75;;;23.60;99.90;;;;;;4955023;28;20239;-72
2021/07/08 09:39:53;;;;;;;2.63;1.90;;;23.60;99.90;;;;;;4949804;28;20248;-74
2021/07/08 09:42:35;;;;;;;2.97;2.35;;;23.70;99.90;;;;;;4950315;28;20217;-77
2021/07/08 09:45:08;;;;;;;2.65;2.42;;;23.70;99.90;;;;;;4953477;28;20624;-73
2021/07/08 09:47:43;;;;;;;2.90;2.70;;;23.40;99.90;;;;;;4968691;28;20212;-75
2021/07/08 09:50:13;;;;;;;4.32;2.80;;;23.30;99.90;;;;;;4957445;28;20211;-72
2021/07/08 09:52:40;;;;;;;3.15;2.80;;;23.40;99.90;;;;;;4952572;28;20186;-73
2021/07/08 09:55:16;;;;;;;2.30;2.20;;;23.40;99.90;;;;;;4956103;28;20177;-72
2021/07/08 09:57:47;;;;;;;3.40;3.10;;;23.50;99.90;;;;;;4955075;28;20317;-73
2021/07/08 10:00:19;;;;;;;7.57;2.80;;;23.70;99.90;;;;;;4955651;28;20265;-73
2021/07/08 10:02:46;;;;;;;2.90;2.55;;;23.70;99.90;;;;;;4958945;28;20213;-72
2021/07/08 10:05:13;;;;;;;3.40;2.70;;;23.70;99.90;;;;;;4954267;28;20222;-73
2021/07/08 10:07:38;;;;;;;3.40;3.10;;;23.90;99.90;;;;;;4958633;28;20254;-73
2021/07/08 10:10:05;;;;;;;2.72;2.53;;;23.90;99.90;;;;;;4956753;28;20228;-73
2021/07/08 10:12:32;;;;;;;2.65;2.45;;;24.10;99.90;;;;;;4957062;28;20177;-73
2021/07/08 10:15:02;;;;;;;2.83;2.63;;;24.40;99.90;;;;;;4953638;28;20236;-73
2021/07/08 10:17:31;;;;;;;2.80;2.28;;;24.60;99.90;;;;;;4950614;28;20236;-72
2021/07/08 10:19:57;;;;;;;2.20;2.00;;;24.80;99.90;;;;;;4952385;28;20197;-72
2021/07/08 10:22:23;;;;;;;2.20;1.70;;;25.20;99.90;;;;;;4951268;28;20194;-74
2021/07/08 10:24:50;;;;;;;2.00;1.90;;;25.40;99.90;;;;;;4950421;28;20705;-74
2021/07/08 10:27:20;;;;;;;2.38;1.92;;;25.40;99.90;;;;;;4951317;28;20197;-73
2021/07/08 10:29:48;;;;;;;1.38;1.27;;;25.70;99.90;;;;;;4958222;28;20285;-71
2021/07/08 10:32:15;;;;;;;2.08;1.88;;;26.00;99.90;;;;;;4950438;28;20185;-73
2021/07/08 10:34:45;;;;;;;1.63;1.52;;;26.30;99.90;;;;;;4953266;28;20210;-73
2021/07/08 10:37:20;;;;;;;2.20;1.70;;;26.20;99.90;;;;;;4953914;28;20194;-73
2021/07/08 10:39:45;;;;;;;1.77;1.67;;;26.40;99.90;;;;;;4956943;28;20762;-73
2021/07/08 10:42:11;;;;;;;1.40;1.30;;;26.70;99.90;;;;;;4955196;28;20185;-72
2021/07/08 10:44:39;;;;;;;2.45;1.73;;;26.80;99.90;;;;;;4963378;28;20227;-73
2021/07/08 10:47:07;;;;;;;1.80;1.27;;;26.70;99.90;;;;;;4958982;28;20256;-74
2021/07/08 10:49:41;;;;;;;1.70;1.58;;;26.70;99.90;;;;;;4964521;28;20205;-73
2021/07/08 10:52:11;;;;;;;1.48;1.35;;;26.80;99.90;;;;;;4956558;28;20188;-75
2021/07/08 10:54:37;;;;;;;1.20;1.10;;;27.20;99.90;;;;;;4955627;28;20205;-74
2021/07/08 10:57:04;;;;;;;1.23;1.13;;;27.40;99.90;;;;;;4956572;28;20185;-74
2021/07/08 10:59:47;;;;;;;2.30;2.10;;;27.30;99.90;;;;;;4959101;28;20239;-74
2021/07/08 11:02:45;;;;;;;1.52;1.38;;;27.30;99.90;;;;;;4959682;28;20192;-75
2021/07/08 11:05:11;;;;;;;1.40;1.30;;;27.10;99.90;;;;;;4957312;28;20614;-74
2021/07/08 11:07:47;;;;;;;1.63;1.17;;;26.80;99.90;;;;;;4958347;28;20212;-74
2021/07/08 11:10:13;;;;;;;1.17;1.15;;;27.00;99.90;;;;;;4958011;28;20240;-74
2021/07/08 11:12:43;;;;;;;1.20;1.10;;;27.20;99.90;;;;;;4956333;28;20204;-73
2021/07/08 11:15:09;;;;;;;1.20;1.10;;;27.40;99.90;;;;;;4957816;28;20569;-75
2021/07/08 11:17:43;;;;;;;1.23;1.13;;;27.50;99.90;;;;;;4958318;28;20182;-73
2021/07/08 11:20:29;;;;;;;0.90;0.90;;;27.50;99.90;;;;;;4960376;28;20312;-73
2021/07/08 11:22:55;;;;;;;1.15;1.05;;;27.40;99.90;;;;;;4959201;28;20180;-74
2021/07/08 11:25:41;;;;;;;1.80;1.42;;;27.70;99.90;;;;;;4958553;28;20184;-73
2021/07/08 11:28:30;;;;;;;1.25;1.17;;;28.00;99.90;;;;;;4959647;28;20192;-74
2021/07/08 11:31:07;;;;;;;1.63;1.05;;;28.10;99.90;;;;;;4960645;28;20216;-74
2021/07/08 11:33:38;;;;;;;2.50;1.20;;;28.20;99.90;;;;;;4958772;28;20251;-73
2021/07/08 11:36:19;;;;;;;1.17;1.10;;;28.10;99.90;;;;;;4960372;28;20189;-73
2021/07/08 11:38:46;;;;;;;1.90;1.10;;;27.80;99.90;;;;;;4961184;28;20273;-74
2021/07/08 11:41:15;;;;;;;1.70;1.10;;;27.70;99.90;;;;;;4954703;28;21292;-73
2021/07/08 11:43:51;;;;;;;1.67;1.55;;;27.90;99.90;;;;;;4957179;28;20190;-74
2021/07/08 11:46:17;;;;;;;3.75;1.50;;;28.00;99.90;;;;;;4958701;28;20185;-73
2021/07/08 11:48:45;;;;;;;4.07;1.50;;;28.10;99.90;;;;;;4956108;28;20264;-73
2021/07/08 11:51:15;;;;;;;2.38;1.13;;;28.40;99.90;;;;;;4959035;28;20205;-72
2021/07/08 11:53:42;;;;;;;2.53;1.58;;;28.80;99.90;;;;;;4955646;28;20201;-72
2021/07/08 11:56:08;;;;;;;1.42;1.30;;;28.70;99.90;;;;;;4955523;28;20204;-73
2021/07/08 11:58:34;;;;;;;1.33;1.23;;;28.40;99.90;;;;;;4956450;28;20229;-73
2021/07/08 12:01:08;;;;;;;1.38;1.27;;;28.30;99.90;;;;;;4959917;28;20209;-73
2021/07/08 12:03:47;;;;;;;1.38;1.20;;;28.20;99.90;;;;;;4956814;28;20363;-72
2021/07/08 12:06:25;;;;;;;1.70;1.13;;;28.10;99.90;;;;;;4955141;28;20188;-73
2021/07/08 12:08:53;;;;;;;1.13;1.10;;;27.90;99.90;;;;;;4959843;28;20201;-72
2021/07/08 12:11:44;;;;;;;1.00;1.00;;;28.10;99.90;;;;;;4956379;28;20217;-72
2021/07/08 12:14:12;;;;;;;0.80;0.80;;;28.30;99.90;;;;;;4958132;28;20232;-72
2021/07/08 12:16:43;;;;;;;1.20;1.10;;;28.70;99.90;;;;;;4959889;28;20556;-73
2021/07/08 12:19:19;;;;;;;3.03;1.48;;;29.00;99.90;;;;;;4960487;28;20299;-73
2021/07/08 12:21:47;;;;;;;0.95;0.95;;;29.10;99.90;;;;;;4957289;28;20197;-73
2021/07/08 12:24:19;;;;;;;1.75;1.33;;;28.70;99.90;;;;;;4957366;28;20182;-72
2021/07/08 12:26:45;;;;;;;2.30;1.40;;;28.70;99.90;;;;;;4957967;28;20263;-73
2021/07/08 12:29:19;;;;;;;1.42;1.27;;;29.00;99.90;;;;;;4953396;28;20217;-74
2021/07/08 12:31:51;;;;;;;1.25;1.00;;;28.80;99.90;;;;;;4958239;28;20188;-74
2021/07/08 12:34:19;;;;;;;0.93;0.90;;;28.60;99.90;;;;;;4957833;28;20216;-73
2021/07/08 12:36:45;;;;;;;1.20;1.10;;;28.60;99.90;;;;;;4955547;28;20523;-73
2021/07/08 12:39:22;;;;;;;2.08;1.20;;;28.70;99.90;;;;;;4956652;28;20221;-73
2021/07/08 12:41:48;;;;;;;1.77;1.20;;;28.80;99.90;;;;;;4954397;28;20341;-73
2021/07/08 12:44:16;;;;;;;1.65;1.30;;;28.80;99.90;;;;;;4955013;28;20299;-74
2021/07/08 12:46:42;;;;;;;1.40;1.30;;;28.70;99.90;;;;;;4955666;28;20211;-73
2021/07/08 12:49:09;;;;;;;1.40;1.30;;;29.00;99.90;;;;;;4949967;28;20301;-72
2021/07/08 12:51:36;;;;;;;1.30;1.20;;;28.90;99.90;;;;;;4954741;28;20177;-74
2021/07/08 12:54:02;;;;;;;2.10;1.45;;;28.50;99.90;;;;;;4958088;28;20340;-75